Auburn, New Hampshire
Current Conditions -  °F | °C
As of 4:53 PM on Tuesday 21 Oct 2014 (Local Time) from KMHT Reporting Station
Overcast Overcast  
Wind Chill: 57°   Ceiling: 1200
Heat Index: 57°   Visibility: 10mi
Dew Point: 50°   Wind: 8mph
Humidity: 77%   Direction: 20°NNE
Pressure: 29.94"   Gusts: NA
Location:  43°N, 71.35°W
Report Text: KMHT 212053Z 02007KT 10SM OVC012 14/10 A2994 RMK AO2 SLP152 60000 T01390100 53003
Loading
Personal Weather Stations






























Interactive Weather Map
Tropical Storm Tracking
New forecast layout! Learn more

10-Day Weather Forecast

Advertisements
Track Severe Weather on mobile